Time;durP1;ratioP1;P1;durP2;ratioP2;P2;SDS_P1;SDS_P2;PMS_P1;PMS_P2;Temp;Humidity;BMP_temperature;BMP_pressure;BME280_temperature;BME280_humidity;BME280_pressure;Samples;Min_cycle;Max_cycle;Signal;HPM_P1;HPM_P2
2023/03/29 00:01:29;;;;;;;4.75;2.50;;;5.90;99.90;;;;;;5091518;28;20046;-56
2023/03/29 00:03:56;;;;;;;4.20;2.65;;;5.90;99.90;;;;;;5091509;28;20036;-57
2023/03/29 00:06:22;;;;;;;4.05;3.10;;;6.00;99.90;;;;;;5094742;28;20481;-57
2023/03/29 00:09:03;;;;;;;5.18;2.97;;;5.90;99.90;;;;;;5088845;28;20093;-56
2023/03/29 00:11:29;;;;;;;5.50;2.88;;;5.90;99.90;;;;;;5094351;28;20035;-56
2023/03/29 00:13:55;;;;;;;4.82;2.72;;;6.00;99.90;;;;;;5114050;28;20092;-57
2023/03/29 00:16:22;;;;;;;5.60;2.70;;;6.00;99.90;;;;;;5114926;28;20046;-57
2023/03/29 00:18:49;;;;;;;3.30;2.20;;;5.90;99.90;;;;;;5108614;28;20032;-57
2023/03/29 00:21:16;;;;;;;3.60;2.72;;;5.90;99.90;;;;;;5093644;28;20036;-56
2023/03/29 00:23:43;;;;;;;6.60;2.65;;;5.90;99.90;;;;;;5095055;28;20036;-56
2023/03/29 00:26:09;;;;;;;7.45;3.13;;;5.90;99.90;;;;;;5094856;28;20043;-57
2023/03/29 00:28:35;;;;;;;5.45;3.10;;;6.00;99.90;;;;;;5095370;28;20032;-56
2023/03/29 00:31:09;;;;;;;5.07;2.70;;;5.90;99.90;;;;;;5086008;28;20093;-56
2023/03/29 00:33:36;;;;;;;7.25;3.28;;;5.90;99.90;;;;;;5074281;28;20043;-57
2023/03/29 00:36:03;;;;;;;8.70;4.15;;;5.90;99.90;;;;;;5074582;28;20029;-57
2023/03/29 00:38:29;;;;;;;4.82;2.78;;;5.90;99.90;;;;;;5074284;28;20487;-57
2023/03/29 00:40:55;;;;;;;4.60;2.88;;;5.90;99.90;;;;;;5084021;28;20504;-57
2023/03/29 00:43:21;;;;;;;6.57;2.70;;;5.90;99.90;;;;;;5074297;28;20123;-57
2023/03/29 00:45:47;;;;;;;4.78;2.55;;;5.90;99.90;;;;;;5074357;28;20041;-56
2023/03/29 00:48:18;;;;;;;5.25;2.75;;;5.90;99.90;;;;;;5070573;28;20457;-56
2023/03/29 00:50:52;;;;;;;5.10;2.90;;;6.00;99.90;;;;;;5073707;28;20056;-57
2023/03/29 00:53:44;;;;;;;7.95;2.67;;;5.90;99.90;;;;;;5079076;28;20118;-57
2023/03/29 00:56:16;;;;;;;4.97;2.65;;;5.90;99.90;;;;;;4992381;28;20054;-57
2023/03/29 00:58:53;;;;;;;4.82;2.65;;;5.90;99.90;;;;;;4992514;28;20515;-57
2023/03/29 01:01:53;;;;;;;5.22;2.83;;;5.80;99.90;;;;;;4998281;28;20046;-57
2023/03/29 01:28:23;;;;;;;5.97;2.97;;;5.90;99.90;;;;;;5011502;28;20057;-56
2023/03/29 01:30:58;;;;;;;3.55;2.35;;;5.90;99.90;;;;;;5011479;28;20048;-57
2023/03/29 01:33:32;;;;;;;4.80;2.60;;;5.90;99.90;;;;;;5064938;28;20044;-58
2023/03/29 01:36:06;;;;;;;5.65;3.00;;;5.90;99.90;;;;;;5093408;28;20040;-57
2023/03/29 01:38:38;;;;;;;4.40;2.50;;;5.90;99.90;;;;;;5093537;28;20181;-55
2023/03/29 01:41:04;;;;;;;7.03;2.60;;;5.90;99.90;;;;;;5093318;28;20036;-57
2023/03/29 01:43:55;;;;;;;4.30;2.58;;;5.90;99.90;;;;;;5089823;28;20161;-56
2023/03/29 01:46:31;;;;;;;5.35;2.60;;;5.90;99.90;;;;;;5074800;28;20051;-57
2023/03/29 01:49:18;;;;;;;5.38;3.35;;;5.80;99.90;;;;;;5093224;28;20386;-57
2023/03/29 01:52:00;;;;;;;3.30;2.70;;;5.90;99.90;;;;;;5092416;28;20083;-57
2023/03/29 01:54:40;;;;;;;6.38;2.92;;;5.80;99.90;;;;;;5073608;28;20036;-56
2023/03/29 01:57:09;;;;;;;5.70;3.53;;;5.90;99.90;;;;;;5092864;28;20036;-58
2023/03/29 01:59:40;;;;;;;5.20;2.88;;;5.90;99.90;;;;;;5092977;28;20043;-56
2023/03/29 02:02:13;;;;;;;4.47;2.90;;;5.80;99.90;;;;;;5092967;28;20040;-57
2023/03/29 02:04:46;;;;;;;6.55;2.95;;;5.80;99.90;;;;;;5079816;28;20587;-56
2023/03/29 02:07:14;;;;;;;7.43;3.72;;;5.80;99.90;;;;;;5079146;28;20043;-56
2023/03/29 02:09:41;;;;;;;5.78;3.63;;;5.80;99.90;;;;;;5092620;28;20118;-56
2023/03/29 02:12:08;;;;;;;5.75;3.28;;;5.80;99.90;;;;;;5092905;28;20040;-56
2023/03/29 02:14:34;;;;;;;5.63;3.92;;;5.80;99.90;;;;;;5079236;28;20109;-56
2023/03/29 02:17:21;;;;;;;7.47;3.88;;;5.80;99.90;;;;;;5091141;28;20036;-56
2023/03/29 02:19:53;;;;;;;9.13;3.30;;;5.80;99.90;;;;;;5092860;28;20070;-57
2023/03/29 02:22:32;;;;;;;7.93;4.10;;;5.80;99.90;;;;;;5091380;28;20042;-56
2023/03/29 02:25:00;;;;;;;4.20;3.63;;;5.80;99.90;;;;;;5072072;28;20052;-57
2023/03/29 02:27:28;;;;;;;6.55;3.72;;;5.70;99.90;;;;;;5081141;28;20036;-57
2023/03/29 02:29:54;;;;;;;5.53;4.03;;;5.80;99.90;;;;;;5092380;28;20560;-56
2023/03/29 02:32:28;;;;;;;5.45;3.53;;;5.80;99.90;;;;;;5092232;28;20048;-56
2023/03/29 02:35:00;;;;;;;8.43;4.05;;;5.80;99.90;;;;;;5083048;28;20044;-56
2023/03/29 02:37:29;;;;;;;6.70;4.05;;;6.00;99.90;;;;;;5054311;28;20394;-57
2023/03/29 02:39:57;;;;;;;7.18;4.05;;;5.80;99.90;;;;;;5071976;28;20502;-56
2023/03/29 02:42:24;;;;;;;9.10;4.25;;;5.80;99.90;;;;;;5072318;28;20043;-56
2023/03/29 02:44:53;;;;;;;6.25;4.50;;;5.90;99.90;;;;;;5081468;28;20069;-56
2023/03/29 02:47:25;;;;;;;;;;;5.80;99.90;;;;;;5072757;28;20040;-57
2023/03/29 02:49:51;;;;;;;12.50;5.18;;;5.90;99.90;;;;;;5072135;28;19921;-57
2023/03/29 02:52:22;;;;;;;8.32;4.40;;;5.90;99.90;;;;;;5071988;28;20041;-57
2023/03/29 02:54:51;;;;;;;8.27;4.00;;;5.80;99.90;;;;;;5077763;28;20081;-57
2023/03/29 02:57:20;;;;;;;6.35;3.70;;;5.90;99.90;;;;;;5075580;28;20037;-58
2023/03/29 02:59:46;;;;;;;7.28;4.22;;;5.90;99.90;;;;;;5072201;28;20040;-58
2023/03/29 03:02:12;;;;;;;7.65;4.50;;;5.80;99.90;;;;;;5086604;28;20040;-58
2023/03/29 03:04:38;;;;;;;8.60;4.53;;;5.90;99.90;;;;;;5091787;28;20047;-58
2023/03/29 03:07:04;;;;;;;7.03;4.22;;;5.80;99.90;;;;;;5084324;28;20047;-58
2023/03/29 03:09:30;;;;;;;7.72;4.53;;;5.90;99.90;;;;;;5091922;28;20085;-58
2023/03/29 03:11:55;;;;;;;6.00;4.22;;;5.80;99.90;;;;;;5074098;28;20408;-58
2023/03/29 03:14:21;;;;;;;8.13;4.78;;;5.90;99.90;;;;;;5091816;28;20101;-58
2023/03/29 03:16:48;;;;;;;9.27;4.75;;;5.90;99.90;;;;;;5089134;28;20107;-57
2023/03/29 03:19:14;;;;;;;6.05;3.90;;;5.90;99.90;;;;;;5073837;28;20444;-58
2023/03/29 03:21:40;;;;;;;8.60;4.75;;;5.90;99.90;;;;;;5065625;28;20417;-58
2023/03/29 03:24:06;;;;;;;7.70;4.53;;;5.90;99.90;;;;;;5091746;28;20043;-58
2023/03/29 03:26:32;;;;;;;7.53;4.28;;;5.80;99.90;;;;;;5090017;28;20081;-58
2023/03/29 03:28:58;;;;;;;8.27;4.35;;;5.90;99.90;;;;;;5078785;28;20044;-57
2023/03/29 03:31:23;;;;;;;7.40;4.15;;;5.90;99.90;;;;;;5071944;28;20750;-58
2023/03/29 03:33:49;;;;;;;9.90;4.28;;;5.90;99.90;;;;;;5071613;28;20440;-57
2023/03/29 03:36:15;;;;;;;7.05;4.38;;;5.90;99.90;;;;;;5071714;28;20041;-57
2023/03/29 03:38:41;;;;;;;5.40;4.25;;;5.90;99.90;;;;;;5053651;28;20055;-57
2023/03/29 03:41:07;;;;;;;9.45;5.20;;;5.90;99.90;;;;;;5083797;28;20051;-57
2023/03/29 03:43:33;;;;;;;5.75;4.43;;;5.90;99.90;;;;;;5057587;28;20048;-57
2023/03/29 03:46:00;;;;;;;6.57;4.28;;;5.90;99.90;;;;;;5084223;28;20044;-57
2023/03/29 03:48:26;;;;;;;9.63;4.88;;;5.90;99.90;;;;;;5061114;28;20044;-57
2023/03/29 03:50:54;;;;;;;9.18;4.45;;;6.00;99.90;;;;;;5095444;28;20460;-57
2023/03/29 03:53:20;;;;;;;10.00;4.47;;;5.90;99.90;;;;;;5095349;28;20074;-57
2023/03/29 03:55:50;;;;;;;6.88;4.15;;;5.90;99.90;;;;;;5093581;28;20040;-57
2023/03/29 03:58:17;;;;;;;9.77;4.63;;;6.00;99.90;;;;;;5081322;28;20060;-58
2023/03/29 04:00:44;;;;;;;6.88;4.65;;;6.00;99.90;;;;;;5075128;28;20081;-58
2023/03/29 04:03:10;;;;;;;5.95;4.55;;;6.00;99.90;;;;;;5074988;28;20044;-58
2023/03/29 04:05:39;;;;;;;8.38;4.85;;;6.00;99.90;;;;;;5074993;28;20607;-58
2023/03/29 04:08:05;;;;;;;8.50;4.38;;;6.00;99.90;;;;;;5084334;28;20037;-58
2023/03/29 04:10:33;;;;;;;8.35;5.35;;;6.00;99.90;;;;;;5056975;28;20075;-58
2023/03/29 04:13:03;;;;;;;6.60;4.93;;;6.00;99.90;;;;;;5074979;28;20478;-58
2023/03/29 04:15:30;;;;;;;9.95;4.43;;;6.10;99.90;;;;;;5074930;28;20482;-58
2023/03/29 04:17:57;;;;;;;9.38;4.88;;;6.00;99.90;;;;;;5084163;28;20043;-58
2023/03/29 04:20:23;;;;;;;9.93;5.15;;;6.00;99.90;;;;;;5095272;28;20051;-58
2023/03/29 04:22:50;;;;;;;9.18;5.05;;;6.10;99.90;;;;;;5095018;28;20093;-58
2023/03/29 04:25:16;;;;;;;7.45;5.00;;;6.00;99.90;;;;;;5090865;28;20092;-59
2023/03/29 04:27:42;;;;;;;7.57;5.22;;;6.10;99.90;;;;;;5074580;28;20540;-58
2023/03/29 04:30:09;;;;;;;7.93;4.90;;;6.00;99.90;;;;;;5074882;28;20317;-58
2023/03/29 04:32:35;;;;;;;10.75;5.38;;;6.00;99.90;;;;;;5074443;28;20055;-58
2023/03/29 04:35:01;;;;;;;9.85;5.00;;;6.10;99.90;;;;;;5078696;28;20036;-58
2023/03/29 04:37:28;;;;;;;7.85;5.13;;;6.10;99.90;;;;;;5079366;28;20429;-58
2023/03/29 04:39:54;;;;;;;7.28;5.55;;;6.10;99.90;;;;;;5074592;28;20454;-58
2023/03/29 04:42:20;;;;;;;7.88;4.90;;;6.10;99.90;;;;;;5072820;28;20044;-58
2023/03/29 04:44:46;;;;;;;16.50;5.68;;;6.10;99.90;;;;;;5094519;28;20040;-58
2023/03/29 04:47:14;;;;;;;10.65;5.68;;;6.10;99.90;;;;;;5082428;28;20041;-58
2023/03/29 04:49:40;;;;;;;8.52;5.15;;;6.10;99.90;;;;;;5074268;28;20060;-58
2023/03/29 04:52:06;;;;;;;9.13;5.03;;;6.10;99.90;;;;;;5038604;28;20106;-58
2023/03/29 04:54:32;;;;;;;8.60;5.82;;;6.10;99.90;;;;;;5074273;28;20376;-58
2023/03/29 04:56:58;;;;;;;7.78;5.28;;;6.10;99.90;;;;;;5084060;28;20069;-58
2023/03/29 04:59:23;;;;;;;8.65;5.28;;;6.10;99.90;;;;;;5078183;28;20092;-58
2023/03/29 05:01:49;;;;;;;12.18;5.60;;;6.10;99.90;;;;;;5094286;28;20486;-58
2023/03/29 05:04:15;;;;;;;9.75;5.35;;;6.10;99.90;;;;;;5094172;28;20051;-58
2023/03/29 05:06:40;;;;;;;10.40;5.65;;;6.20;99.90;;;;;;5092841;28;20045;-58
2023/03/29 05:09:07;;;;;;;10.25;5.75;;;6.20;99.90;;;;;;5080683;28;20448;-58
2023/03/29 05:11:33;;;;;;;11.10;5.70;;;6.20;99.90;;;;;;5073698;28;20486;-58
2023/03/29 05:14:02;;;;;;;10.77;5.80;;;6.20;99.90;;;;;;5073943;28;20033;-58
2023/03/29 05:16:30;;;;;;;11.23;6.17;;;6.20;99.90;;;;;;5074950;28;20375;-59
2023/03/29 05:18:56;;;;;;;10.20;5.88;;;6.20;99.90;;;;;;5086508;28;20115;-58
2023/03/29 05:21:24;;;;;;;9.63;6.10;;;6.20;99.90;;;;;;5055811;28;20126;-58
2023/03/29 05:23:51;;;;;;;8.75;5.80;;;6.20;99.90;;;;;;5073672;28;20051;-58
2023/03/29 05:26:16;;;;;;;8.80;5.57;;;6.30;99.90;;;;;;5072379;28;20398;-58
2023/03/29 05:28:42;;;;;;;10.15;5.55;;;6.20;99.90;;;;;;5081022;28;20043;-59
2023/03/29 05:31:09;;;;;;;8.77;5.90;;;6.30;99.90;;;;;;5057259;28;20101;-59
2023/03/29 05:33:35;;;;;;;10.18;6.00;;;6.30;99.90;;;;;;5073311;28;20491;-58
2023/03/29 05:36:03;;;;;;;8.68;6.13;;;6.30;99.90;;;;;;5090031;28;20043;-59
2023/03/29 05:38:29;;;;;;;12.30;5.80;;;6.30;99.90;;;;;;5090123;28;20445;-58
2023/03/29 05:40:56;;;;;;;8.57;5.25;;;6.30;99.90;;;;;;5066519;28;20036;-58
2023/03/29 05:43:22;;;;;;;12.70;6.45;;;6.30;99.90;;;;;;5073415;28;20493;-58
2023/03/29 05:45:47;;;;;;;9.77;6.05;;;6.30;99.90;;;;;;5055697;28;20055;-58
2023/03/29 05:48:13;;;;;;;10.45;6.80;;;6.30;99.90;;;;;;5073211;28;20041;-58
2023/03/29 05:50:39;;;;;;;10.80;6.43;;;6.30;99.90;;;;;;5064197;28;20060;-58
2023/03/29 05:53:04;;;;;;;10.85;6.53;;;6.30;99.90;;;;;;5072950;28;20098;-58
2023/03/29 05:55:30;;;;;;;9.75;6.30;;;6.30;99.90;;;;;;5072953;28;20038;-58
2023/03/29 05:57:56;;;;;;;8.45;6.50;;;6.30;99.90;;;;;;5072951;28;20032;-58
2023/03/29 06:00:24;;;;;;;9.75;7.15;;;6.40;99.90;;;;;;5075339;28;20037;-58
2023/03/29 06:02:55;;;;;;;10.05;6.82;;;6.40;99.90;;;;;;5084606;28;20397;-58
2023/03/29 06:05:21;;;;;;;10.25;6.72;;;6.30;99.90;;;;;;5085637;28;20045;-58
2023/03/29 06:07:47;;;;;;;9.98;7.13;;;6.40;99.90;;;;;;5093127;28;20036;-58
2023/03/29 06:10:14;;;;;;;10.65;6.95;;;6.40;99.90;;;;;;5092905;28;20394;-58
2023/03/29 06:12:40;;;;;;;9.73;6.43;;;6.40;99.90;;;;;;5080198;28;20178;-58
2023/03/29 06:15:07;;;;;;;12.00;6.90;;;6.50;99.90;;;;;;5078364;28;20036;-58
2023/03/29 06:17:33;;;;;;;10.05;7.10;;;6.40;99.90;;;;;;5092871;28;20054;-58
2023/03/29 06:20:00;;;;;;;11.13;7.03;;;6.40;99.90;;;;;;5087772;28;20077;-58
2023/03/29 06:22:26;;;;;;;13.73;7.57;;;6.50;99.90;;;;;;5070576;28;20379;-58
2023/03/29 06:24:53;;;;;;;10.77;7.43;;;6.40;99.90;;;;;;5077264;28;20044;-58
2023/03/29 06:27:18;;;;;;;15.10;8.02;;;6.30;99.90;;;;;;5072354;28;20502;-58
2023/03/29 06:29:44;;;;;;;12.43;7.43;;;6.40;99.90;;;;;;5076395;28;20121;-58
2023/03/29 06:32:10;;;;;;;11.57;7.88;;;6.40;99.90;;;;;;5092361;28;20035;-58
2023/03/29 06:34:36;;;;;;;12.98;8.35;;;6.40;99.90;;;;;;5078896;28;20191;-57
2023/03/29 06:37:02;;;;;;;12.90;7.65;;;6.40;99.90;;;;;;5092539;28;20612;-57
2023/03/29 06:39:28;;;;;;;11.07;8.07;;;6.50;99.90;;;;;;5092309;28;20080;-57
2023/03/29 06:41:54;;;;;;;14.02;7.82;;;6.40;99.90;;;;;;5092440;28;20390;-57
2023/03/29 06:44:20;;;;;;;10.65;8.20;;;6.50;99.90;;;;;;5071506;28;20044;-57
2023/03/29 06:46:46;;;;;;;13.77;8.23;;;6.50;99.90;;;;;;5054256;28;20044;-57
2023/03/29 06:49:12;;;;;;;14.80;8.07;;;6.50;99.90;;;;;;5070755;28;20143;-57
2023/03/29 06:51:39;;;;;;;12.48;8.00;;;6.60;99.90;;;;;;5072052;28;20418;-57
2023/03/29 06:54:04;;;;;;;13.40;7.95;;;6.60;99.90;;;;;;5072988;28;20040;-57
2023/03/29 06:56:31;;;;;;;12.95;7.88;;;6.60;99.90;;;;;;5071931;28;20817;-57
2023/03/29 06:58:56;;;;;;;11.27;8.23;;;6.60;99.90;;;;;;5071989;28;20044;-57
2023/03/29 07:01:23;;;;;;;13.43;8.23;;;6.60;99.90;;;;;;5090201;28;20432;-57
2023/03/29 07:03:48;;;;;;;19.38;9.02;;;6.60;99.90;;;;;;5092146;28;20051;-58
2023/03/29 07:06:16;;;;;;;12.95;7.85;;;6.70;99.90;;;;;;5075322;28;20028;-59
2023/03/29 07:08:42;;;;;;;14.15;8.88;;;6.60;99.90;;;;;;5054021;28;20052;-57
2023/03/29 07:11:13;;;;;;;11.45;8.32;;;6.80;99.90;;;;;;5071900;28;20051;-58
2023/03/29 07:13:42;;;;;;;16.63;8.40;;;7.00;99.90;;;;;;5071693;28;20037;-57
2023/03/29 07:16:12;;;;;;;16.85;8.27;;;7.10;99.90;;;;;;5079457;28;20032;-57
2023/03/29 07:18:40;;;;;;;12.48;8.82;;;7.10;99.90;;;;;;5091060;28;20036;-58
2023/03/29 07:21:07;;;;;;;16.77;8.40;;;7.20;99.90;;;;;;5091867;28;20494;-59
2023/03/29 07:23:33;;;;;;;12.65;7.90;;;7.30;99.90;;;;;;5091987;28;20035;-59
2023/03/29 07:25:59;;;;;;;13.70;8.10;;;7.30;99.90;;;;;;5089987;28;20040;-57
2023/03/29 07:28:24;;;;;;;13.75;7.95;;;7.30;99.90;;;;;;5079947;28;20113;-57
2023/03/29 07:30:50;;;;;;;11.00;7.80;;;7.40;99.90;;;;;;5082407;28;20469;-57
2023/03/29 07:33:16;;;;;;;14.32;8.15;;;7.30;99.90;;;;;;5074530;28;20044;-57
2023/03/29 07:35:46;;;;;;;12.13;7.60;;;7.20;99.90;;;;;;5071886;28;20044;-57
2023/03/29 07:38:14;;;;;;;10.32;8.20;;;7.20;99.90;;;;;;5071335;28;20097;-57
2023/03/29 07:40:40;;;;;;;11.25;8.02;;;7.20;99.90;;;;;;5077823;28;20036;-57
2023/03/29 07:43:08;;;;;;;13.20;8.10;;;7.20;99.90;;;;;;5074754;28;20059;-57
2023/03/29 07:45:34;;;;;;;15.77;7.90;;;7.20;99.90;;;;;;5071558;28;20147;-57
2023/03/29 07:48:00;;;;;;;14.02;8.15;;;7.20;99.90;;;;;;5071781;28;20123;-57
2023/03/29 07:50:26;;;;;;;13.52;7.95;;;7.10;99.90;;;;;;5053296;28;20139;-57
2023/03/29 07:52:52;;;;;;;15.23;7.72;;;7.10;99.90;;;;;;5063399;28;20172;-57
2023/03/29 07:55:18;;;;;;;10.43;7.93;;;7.20;99.90;;;;;;5071561;28;20137;-57
2023/03/29 07:57:43;;;;;;;14.90;8.35;;;7.20;99.90;;;;;;5071658;28;20066;-57
2023/03/29 08:00:14;;;;;;;14.20;8.25;;;7.30;99.90;;;;;;5071487;28;20044;-57
2023/03/29 08:02:45;;;;;;;16.75;8.18;;;7.30;99.90;;;;;;5081519;28;20506;-57
2023/03/29 08:05:12;;;;;;;11.48;7.88;;;7.30;99.90;;;;;;5053431;28;20048;-57
2023/03/29 08:07:40;;;;;;;11.98;7.88;;;7.40;99.90;;;;;;5071318;28;20108;-57
2023/03/29 08:10:11;;;;;;;20.13;8.63;;;7.40;99.90;;;;;;5071251;28;20055;-57
2023/03/29 08:12:37;;;;;;;12.65;7.30;;;7.60;99.90;;;;;;5076808;28;20044;-57
2023/03/29 08:15:04;;;;;;;12.43;8.38;;;7.60;99.90;;;;;;5072021;28;20138;-57
2023/03/29 08:17:30;;;;;;;11.75;8.15;;;7.60;99.90;;;;;;5091385;28;20062;-57
2023/03/29 08:19:55;;;;;;;9.25;7.13;;;7.70;99.90;;;;;;5091195;28;20036;-57
2023/03/29 08:22:21;;;;;;;10.55;7.65;;;7.70;99.90;;;;;;5090973;28;20040;-56
2023/03/29 08:24:47;;;;;;;11.00;7.63;;;7.80;99.90;;;;;;5079319;28;20123;-57
2023/03/29 08:27:12;;;;;;;13.15;7.47;;;7.80;99.90;;;;;;5074008;28;20093;-57
2023/03/29 08:29:38;;;;;;;11.07;7.35;;;7.80;99.90;;;;;;5056387;28;20061;-57
2023/03/29 08:32:04;;;;;;;14.88;7.55;;;7.90;99.90;;;;;;5056325;28;20044;-57
2023/03/29 08:34:30;;;;;;;13.35;7.60;;;8.00;99.90;;;;;;5080619;28;20037;-57
2023/03/29 08:36:57;;;;;;;13.35;7.68;;;8.10;99.90;;;;;;5058777;28;20044;-57
2023/03/29 08:39:23;;;;;;;13.43;7.75;;;8.10;99.90;;;;;;5074771;28;20036;-57
2023/03/29 08:42:28;;;;;;;11.85;8.13;;;8.10;99.90;;;;;;5074286;28;20419;-57
2023/03/29 08:45:08;;;;;;;12.15;7.68;;;8.10;99.90;;;;;;5076967;28;20078;-57
2023/03/29 08:47:47;;;;;;;12.05;7.50;;;8.20;99.90;;;;;;5093583;28;20044;-57
2023/03/29 08:50:13;;;;;;;14.07;7.95;;;8.30;99.90;;;;;;5094247;28;20060;-57
2023/03/29 08:52:47;;;;;;;11.32;7.75;;;8.40;99.90;;;;;;5076283;28;20059;-57
2023/03/29 08:55:38;;;;;;;13.23;7.82;;;8.50;99.90;;;;;;5093039;28;20369;-59
2023/03/29 08:58:10;;;;;;;11.70;8.00;;;8.50;99.90;;;;;;5076328;28;20028;-59
2023/03/29 09:00:44;;;;;;;12.68;7.68;;;8.80;99.90;;;;;;5080642;28;20347;-59
2023/03/29 09:03:23;;;;;;;14.52;7.43;;;8.60;99.90;;;;;;5094727;28;20036;-59
2023/03/29 09:05:58;;;;;;;11.73;7.33;;;8.80;99.90;;;;;;5093003;28;20368;-59
2023/03/29 09:08:24;;;;;;;11.55;7.28;;;8.90;99.90;;;;;;5081928;28;20543;-59
2023/03/29 09:11:15;;;;;;;11.85;7.80;;;9.00;99.90;;;;;;5074605;28;20032;-59
2023/03/29 09:14:23;;;;;;;9.63;6.65;;;9.10;99.90;;;;;;5082634;28;20123;-59
2023/03/29 09:16:55;;;;;;;10.77;7.22;;;9.20;99.90;;;;;;5016362;28;20084;-59
2023/03/29 09:19:36;;;;;;;12.48;7.60;;;9.30;99.90;;;;;;5015407;28;20068;-59
2023/03/29 09:22:17;;;;;;;14.73;8.18;;;9.30;99.90;;;;;;5011948;28;20046;-60
2023/03/29 09:25:07;;;;;;;13.75;7.68;;;9.50;99.90;;;;;;5011958;28;20492;-59
2023/03/29 09:27:45;;;;;;;16.53;7.57;;;9.60;99.90;;;;;;5012151;28;20054;-60
2023/03/29 09:30:25;;;;;;;15.30;7.50;;;9.80;99.90;;;;;;5011897;28;20335;-59
2023/03/29 09:32:56;;;;;;;13.70;8.15;;;9.80;99.90;;;;;;5026187;28;20045;-60
2023/03/29 09:35:30;;;;;;;11.30;7.57;;;9.90;99.90;;;;;;5030483;28;20491;-60
2023/03/29 09:37:56;;;;;;;16.25;8.05;;;10.00;99.90;;;;;;5025512;28;20045;-59
2023/03/29 09:40:41;;;;;;;14.48;7.97;;;10.00;99.90;;;;;;5031388;28;20050;-59
2023/03/29 09:43:17;;;;;;;16.52;9.23;;;10.00;99.90;;;;;;5031456;28;20079;-60
2023/03/29 09:45:49;;;;;;;16.45;8.60;;;10.10;99.90;;;;;;5017823;28;20045;-60
2023/03/29 09:48:18;;;;;;;12.85;8.40;;;10.10;99.90;;;;;;5011817;28;20103;-60
2023/03/29 09:50:51;;;;;;;16.63;8.52;;;10.20;99.90;;;;;;5039840;28;20089;-60
2023/03/29 09:53:19;;;;;;;18.60;10.02;;;10.20;99.90;;;;;;5060643;28;20439;-58
2023/03/29 09:55:48;;;;;;;19.77;9.38;;;10.20;99.90;;;;;;5073267;28;20036;-60
2023/03/29 09:58:26;;;;;;;21.38;9.45;;;10.20;99.90;;;;;;5055363;28;20033;-60
2023/03/29 10:00:55;;;;;;;17.35;9.85;;;10.20;99.90;;;;;;5073278;28;20044;-59
2023/03/29 10:03:24;;;;;;;17.13;8.77;;;10.30;99.90;;;;;;5053449;28;20076;-57
2023/03/29 10:05:53;;;;;;;13.05;8.35;;;10.40;99.90;;;;;;5053197;28;20044;-59
2023/03/29 10:08:26;;;;;;;15.70;9.25;;;10.30;99.90;;;;;;5054834;28;20041;-59
2023/03/29 10:10:52;;;;;;;15.38;8.90;;;10.40;99.90;;;;;;5061353;28;20071;-59
2023/03/29 10:13:25;;;;;;;15.70;9.48;;;10.30;99.90;;;;;;5093569;28;20043;-60
2023/03/29 10:16:01;;;;;;;15.27;8.40;;;10.30;99.90;;;;;;5084585;28;20036;-60
2023/03/29 10:18:29;;;;;;;12.52;9.10;;;10.30;99.90;;;;;;5069820;28;20087;-60
2023/03/29 10:21:01;;;;;;;14.43;9.07;;;10.30;99.90;;;;;;5052800;28;20044;-59
2023/03/29 10:23:35;;;;;;;15.77;9.27;;;10.30;99.90;;;;;;5052975;28;20028;-60
2023/03/29 10:26:04;;;;;;;16.02;9.05;;;10.30;99.90;;;;;;5051855;28;20045;-60
2023/03/29 10:28:31;;;;;;;15.50;9.60;;;10.30;99.90;;;;;;5077320;28;20115;-59
2023/03/29 10:30:59;;;;;;;13.90;10.15;;;10.30;99.90;;;;;;5092957;28;20500;-59
2023/03/29 10:33:30;;;;;;;25.00;11.27;;;10.40;99.90;;;;;;5092710;28;20485;-59
2023/03/29 10:35:57;;;;;;;13.98;9.32;;;10.50;99.90;;;;;;5077547;28;20483;-59
2023/03/29 10:38:27;;;;;;;17.70;11.55;;;10.40;99.90;;;;;;5052936;28;20036;-59
2023/03/29 10:40:54;;;;;;;22.40;11.50;;;10.60;99.90;;;;;;5052789;28;20037;-60
2023/03/29 10:43:28;;;;;;;20.10;11.52;;;10.60;99.90;;;;;;5052837;28;20169;-59
2023/03/29 10:46:03;;;;;;;17.58;11.27;;;10.70;99.90;;;;;;5052465;28;20045;-59
2023/03/29 10:48:30;;;;;;;16.75;10.75;;;10.80;99.90;;;;;;5052191;28;20399;-59
2023/03/29 10:51:04;;;;;;;20.23;10.40;;;10.90;99.90;;;;;;5069824;28;20131;-59
2023/03/29 10:53:36;;;;;;;18.35;10.98;;;10.90;99.90;;;;;;5083432;28;20039;-59
2023/03/29 10:56:26;;;;;;;17.83;11.95;;;11.00;99.90;;;;;;5092342;28;20074;-59
2023/03/29 10:59:23;;;;;;;20.95;11.68;;;11.00;99.90;;;;;;5090925;28;20043;-57
2023/03/29 11:01:55;;;;;;;17.55;11.48;;;11.20;99.90;;;;;;5090956;28;20048;-57
2023/03/29 11:04:26;;;;;;;24.90;12.80;;;11.30;99.90;;;;;;5073299;28;20516;-57
2023/03/29 11:07:03;;;;;;;17.83;10.50;;;11.40;99.90;;;;;;5071869;28;20064;-57
2023/03/29 11:10:07;;;;;;;16.55;11.32;;;11.60;99.90;;;;;;5087022;28;20051;-57
2023/03/29 11:12:38;;;;;;;16.83;11.27;;;11.70;99.90;;;;;;5092084;28;20044;-57
2023/03/29 11:15:28;;;;;;;15.50;12.25;;;11.70;99.90;;;;;;5091580;28;20097;-57
2023/03/29 11:18:16;;;;;;;18.30;11.90;;;11.80;99.90;;;;;;5091718;28;20081;-57
2023/03/29 11:20:50;;;;;;;19.38;11.18;;;12.10;99.90;;;;;;5091491;28;20273;-57
2023/03/29 11:23:27;;;;;;;19.30;11.95;;;12.30;99.90;;;;;;5091547;28;20040;-58
2023/03/29 11:26:30;;;;;;;14.40;11.20;;;12.40;99.90;;;;;;5090260;28;20040;-57
2023/03/29 11:29:13;;;;;;;17.20;12.35;;;12.70;99.90;;;;;;5091744;28;20032;-57
2023/03/29 11:32:06;;;;;;;13.52;10.98;;;12.80;99.90;;;;;;5091556;28;20066;-57
2023/03/29 11:34:51;;;;;;;15.30;11.25;;;12.90;99.90;;;;;;5091139;28;20474;-57
2023/03/29 11:37:44;;;;;;;17.17;11.40;;;13.00;99.90;;;;;;5091460;28;20051;-57
2023/03/29 11:40:40;;;;;;;17.77;10.80;;;13.00;99.90;;;;;;5091295;28;20036;-57
2023/03/29 11:43:30;;;;;;;20.40;11.18;;;13.10;99.90;;;;;;5089941;28;20044;-58
2023/03/29 11:46:10;;;;;;;18.33;11.95;;;13.10;99.90;;;;;;5091094;28;20481;-58
2023/03/29 11:48:48;;;;;;;15.52;11.18;;;12.90;99.90;;;;;;5091295;28;20040;-57
2023/03/29 11:51:27;;;;;;;16.92;11.38;;;12.90;99.90;;;;;;5091475;28;20087;-57
2023/03/29 11:54:10;;;;;;;15.52;10.60;;;13.00;99.90;;;;;;5091250;28;20123;-58
2023/03/29 11:57:07;;;;;;;14.95;11.18;;;13.00;99.90;;;;;;5091083;28;20505;-57
2023/03/29 11:59:51;;;;;;;16.55;10.60;;;13.00;99.90;;;;;;5087137;28;20044;-58
2023/03/29 12:02:44;;;;;;;15.18;10.10;;;13.00;99.90;;;;;;5094997;28;20040;-59
2023/03/29 12:05:16;;;;;;;19.25;10.68;;;13.10;99.90;;;;;;5094845;28;20086;-57
2023/03/29 12:07:48;;;;;;;16.45;11.05;;;13.10;99.90;;;;;;5095225;28;20040;-57
2023/03/29 12:10:28;;;;;;;18.52;10.25;;;13.10;99.90;;;;;;5095151;28;20040;-58
2023/03/29 12:13:02;;;;;;;14.90;9.75;;;13.00;99.90;;;;;;5095375;28;20572;-57
2023/03/29 12:15:31;;;;;;;14.70;9.50;;;13.10;99.90;;;;;;5094798;28;20036;-57
2023/03/29 12:18:06;;;;;;;10.93;9.00;;;13.10;99.90;;;;;;5094801;28;20119;-58
2023/03/29 12:20:35;;;;;;;12.60;9.40;;;13.30;99.90;;;;;;5095051;28;20095;-58
2023/03/29 12:23:01;;;;;;;14.88;9.05;;;13.50;99.90;;;;;;5094692;28;20054;-58
2023/03/29 12:25:38;;;;;;;12.68;9.10;;;13.60;99.90;;;;;;5094767;28;20040;-58
2023/03/29 12:28:19;;;;;;;12.80;9.40;;;13.70;99.90;;;;;;5094648;28;20146;-57
2023/03/29 12:30:48;;;;;;;11.60;9.32;;;13.80;99.90;;;;;;5094921;28;20116;-57
2023/03/29 12:33:31;;;;;;;13.38;8.95;;;13.80;99.90;;;;;;5094620;28;20047;-58
2023/03/29 12:36:32;;;;;;;12.93;8.40;;;13.80;99.90;;;;;;5094383;28;20405;-58
2023/03/29 12:38:58;;;;;;;10.68;8.18;;;13.80;99.90;;;;;;5094661;28;20037;-58
2023/03/29 12:41:24;;;;;;;10.80;8.50;;;13.90;99.90;;;;;;5094473;28;20097;-58
2023/03/29 12:43:50;;;;;;;13.82;8.20;;;13.90;99.90;;;;;;5094491;28;20072;-58
2023/03/29 12:46:22;;;;;;;12.43;8.60;;;13.90;99.90;;;;;;5094215;28;20498;-58
2023/03/29 12:48:53;;;;;;;11.07;8.18;;;14.00;99.90;;;;;;5075667;28;20147;-58
2023/03/29 12:51:26;;;;;;;12.13;8.23;;;14.00;99.90;;;;;;5094078;28;20040;-58
2023/03/29 12:53:54;;;;;;;11.55;9.00;;;14.00;99.90;;;;;;5094437;28;20122;-58
2023/03/29 12:56:35;;;;;;;13.23;8.82;;;14.00;99.90;;;;;;5094219;28;20044;-58
2023/03/29 12:59:16;;;;;;;14.02;8.65;;;14.00;99.90;;;;;;5075965;28;20046;-58
2023/03/29 13:01:56;;;;;;;11.27;7.57;;;14.00;99.90;;;;;;5093926;28;20039;-58
2023/03/29 13:04:32;;;;;;;12.70;8.57;;;14.10;99.90;;;;;;5094295;28;20508;-58
2023/03/29 13:07:02;;;;;;;10.40;8.05;;;14.10;99.90;;;;;;5093915;28;20093;-58
2023/03/29 13:09:48;;;;;;;9.77;8.40;;;14.10;99.90;;;;;;5093945;28;20075;-57
2023/03/29 13:12:14;;;;;;;10.88;8.25;;;14.10;99.90;;;;;;5093377;28;20086;-58
2023/03/29 13:14:43;;;;;;;12.15;8.55;;;14.00;99.90;;;;;;5093691;28;20075;-57
2023/03/29 13:17:26;;;;;;;12.98;8.63;;;14.00;99.90;;;;;;5093619;28;20028;-57
2023/03/29 13:20:17;;;;;;;12.48;9.20;;;14.00;99.90;;;;;;5073603;28;20143;-58
2023/03/29 13:23:01;;;;;;;12.30;9.20;;;13.90;99.90;;;;;;5066374;28;20048;-58
2023/03/29 13:25:49;;;;;;;11.15;7.90;;;14.00;99.90;;;;;;5073364;28;20143;-57
2023/03/29 13:28:27;;;;;;;14.75;8.18;;;13.80;99.90;;;;;;5078051;28;20442;-57
2023/03/29 13:30:58;;;;;;;12.60;9.10;;;13.80;99.90;;;;;;5093489;28;20051;-57
2023/03/29 13:33:51;;;;;;;11.43;8.75;;;13.80;99.90;;;;;;5093597;28;20040;-57